createdAt,value
2017-12-10T00:00:04.100Z,-4.10
2017-12-10T00:01:05.544Z,-4.10
2017-12-10T00:02:06.935Z,-4.20
2017-12-10T00:03:08.326Z,-4.20
2017-12-10T00:04:09.746Z,-4.20
2017-12-10T00:05:11.136Z,-4.20
2017-12-10T00:06:12.554Z,-4.20
2017-12-10T00:07:14.004Z,-4.20
2017-12-10T00:08:15.417Z,-4.10
2017-12-10T00:09:17.901Z,-4.10
2017-12-10T00:10:19.322Z,-4.10
2017-12-10T00:11:20.756Z,-4.10
2017-12-10T00:12:22.942Z,-4.10
2017-12-10T00:13:24.350Z,-4.10
2017-12-10T00:14:26.796Z,-4.10
2017-12-10T00:15:28.225Z,-4.10
2017-12-10T00:16:29.652Z,-4.10
2017-12-10T00:17:31.056Z,-4.10
2017-12-10T00:18:32.468Z,-4.10
2017-12-10T00:19:33.913Z,-4.10
2017-12-10T00:20:35.332Z,-4.10
2017-12-10T00:21:36.712Z,-4.10
2017-12-10T00:22:38.146Z,-4.10
2017-12-10T00:23:39.572Z,-4.10
2017-12-10T00:24:41.320Z,-4.10
2017-12-10T00:25:42.726Z,-4.10
2017-12-10T00:26:44.137Z,-4.00
2017-12-10T00:27:45.589Z,-4.00
2017-12-10T00:28:47.023Z,-4.00
2017-12-10T00:29:48.757Z,-4.00
2017-12-10T00:30:50.185Z,-4.00
2017-12-10T00:31:51.608Z,-4.00
2017-12-10T00:32:53.020Z,-4.00
2017-12-10T00:33:54.462Z,-4.00
2017-12-10T00:34:56.188Z,-4.10
2017-12-10T00:35:57.612Z,-4.10
2017-12-10T00:36:59.770Z,-4.10
2017-12-10T00:38:01.934Z,-4.10
2017-12-10T00:39:04.105Z,-4.10
2017-12-10T00:40:06.555Z,-4.10
2017-12-10T00:41:07.982Z,-4.10
2017-12-10T00:42:09.429Z,-4.10
2017-12-10T00:43:10.848Z,-4.20
2017-12-10T00:44:12.301Z,-4.20
2017-12-10T00:45:13.728Z,-4.20
2017-12-10T00:46:15.120Z,-4.20
2017-12-10T00:47:16.554Z,-4.20
2017-12-10T00:48:17.985Z,-4.20
2017-12-10T00:49:19.448Z,-4.20
2017-12-10T00:50:21.166Z,-4.20
2017-12-10T00:51:22.592Z,-4.20
2017-12-10T00:52:24.019Z,-4.20
2017-12-10T00:53:26.178Z,-4.20
2017-12-10T00:54:28.348Z,-4.20
2017-12-10T00:55:30.847Z,-4.20
2017-12-10T00:56:32.278Z,-4.20
2017-12-10T00:57:33.712Z,-4.20
2017-12-10T00:58:35.874Z,-4.10
2017-12-10T00:59:38.038Z,-4.10
2017-12-10T01:00:40.487Z,-4.10
2017-12-10T01:01:41.911Z,-4.10
2017-12-10T01:02:43.345Z,-4.10
2017-12-10T01:03:44.760Z,-4.10
2017-12-10T01:04:46.186Z,-4.10
2017-12-10T01:05:48.882Z,-4.10
2017-12-10T01:06:50.299Z,-4.20
2017-12-10T01:07:52.459Z,-4.20
2017-12-10T01:08:54.631Z,-4.20
2017-12-10T01:09:56.810Z,-4.20
2017-12-10T01:10:58.492Z,-4.20
2017-12-10T01:11:59.920Z,-4.20
2017-12-10T01:13:01.328Z,-4.20
2017-12-10T01:14:02.746Z,-4.20
2017-12-10T01:15:04.190Z,-4.20
2017-12-10T01:16:05.855Z,-4.20
2017-12-10T01:17:07.291Z,-4.20
2017-12-10T01:18:08.727Z,-4.20
2017-12-10T01:19:10.799Z,-4.20
2017-12-10T01:20:12.125Z,-4.20
2017-12-10T01:21:13.486Z,-4.20
2017-12-10T01:22:14.826Z,-4.20
2017-12-10T01:23:16.147Z,-4.20
2017-12-10T01:24:17.486Z,-4.30
2017-12-10T01:25:18.826Z,-4.40
2017-12-10T01:26:20.406Z,-4.40
2017-12-10T01:27:21.736Z,-4.50
2017-12-10T01:28:23.068Z,-4.50
2017-12-10T01:29:24.354Z,-4.50
2017-12-10T01:30:25.673Z,-4.50
2017-12-10T01:31:27.130Z,-4.50
2017-12-10T01:32:28.475Z,-4.40
2017-12-10T01:33:29.825Z,-4.40
2017-12-10T01:34:31.166Z,-4.50
2017-12-10T01:35:32.490Z,-4.50
2017-12-10T01:36:34.104Z,-4.50
2017-12-10T01:37:35.449Z,-4.50
2017-12-10T01:38:36.776Z,-4.60
2017-12-10T01:39:38.848Z,-4.70
2017-12-10T01:40:40.160Z,-4.70
2017-12-10T01:41:49.616Z,-4.70
2017-12-10T01:42:50.943Z,-4.70
2017-12-10T01:43:53.007Z,-4.70
2017-12-10T01:44:55.063Z,-4.70
2017-12-10T01:45:57.131Z,-4.70
2017-12-10T01:46:59.218Z,-4.70
2017-12-10T01:48:00.545Z,-4.70
2017-12-10T01:49:02.620Z,-4.70
2017-12-10T01:50:03.943Z,-4.70
2017-12-10T01:51:05.991Z,-4.70
2017-12-10T01:52:08.338Z,-4.60
2017-12-10T01:53:09.658Z,-4.60
2017-12-10T01:54:11.003Z,-4.60
2017-12-10T01:55:12.335Z,-4.60
2017-12-10T01:56:13.664Z,-4.60
2017-12-10T01:57:15.016Z,-4.60
2017-12-10T01:58:16.342Z,-4.60
2017-12-10T01:59:17.672Z,-4.60
2017-12-10T02:00:19.002Z,-4.50
2017-12-10T02:01:20.318Z,-4.50
2017-12-10T02:02:22.656Z,-4.50
2017-12-10T02:03:23.990Z,-4.50
2017-12-10T02:04:25.323Z,-4.50
2017-12-10T02:05:26.668Z,-4.50
2017-12-10T02:06:28.008Z,-4.50
2017-12-10T02:07:29.620Z,-4.50
2017-12-10T02:08:30.948Z,-4.50
2017-12-10T02:09:32.288Z,-4.50
2017-12-10T02:10:34.347Z,-4.50
2017-12-10T02:11:35.680Z,-4.50
2017-12-10T02:12:37.316Z,-4.40
2017-12-10T02:13:38.646Z,-4.40
2017-12-10T02:14:39.972Z,-4.40
2017-12-10T02:15:42.048Z,-4.30
2017-12-10T02:16:43.382Z,-4.30
2017-12-10T02:17:45.512Z,-4.20
2017-12-10T02:18:46.834Z,-4.30
2017-12-10T02:19:48.183Z,-4.30
2017-12-10T02:20:49.522Z,-4.20
2017-12-10T02:21:50.852Z,-4.20
2017-12-10T02:22:52.440Z,-4.20
2017-12-10T02:23:53.774Z,-4.20
2017-12-10T02:24:55.105Z,-4.20
2017-12-10T02:25:56.443Z,-4.20
2017-12-10T02:26:57.748Z,-4.20
2017-12-10T02:27:59.348Z,-4.20
2017-12-10T02:29:00.686Z,-4.20
2017-12-10T02:30:01.999Z,-4.20
2017-12-10T02:31:03.332Z,-4.20
2017-12-10T02:32:04.667Z,-4.20
2017-12-10T02:33:07.979Z,-4.20
2017-12-10T02:34:09.292Z,-4.20
2017-12-10T02:35:11.353Z,-4.10
2017-12-10T02:36:13.403Z,-4.10
2017-12-10T02:37:15.469Z,-4.10
2017-12-10T02:38:17.786Z,-4.10
2017-12-10T02:39:19.094Z,-4.10
2017-12-10T02:40:20.414Z,-4.10
2017-12-10T02:41:22.486Z,-4.10
2017-12-10T02:42:24.547Z,-4.20
2017-12-10T02:43:26.884Z,-4.20
2017-12-10T02:44:28.207Z,-4.20
2017-12-10T02:45:29.535Z,-4.20
2017-12-10T02:46:30.866Z,-4.20
2017-12-10T02:47:32.191Z,-4.30
2017-12-10T02:48:34.540Z,-4.30
2017-12-10T02:49:35.862Z,-4.30
2017-12-10T02:50:37.195Z,-4.20
2017-12-10T02:51:39.265Z,-4.20
2017-12-10T02:52:40.596Z,-4.30
2017-12-10T02:53:42.946Z,-4.30
2017-12-10T02:54:44.278Z,-4.30
2017-12-10T02:55:46.351Z,-4.30
2017-12-10T02:56:47.673Z,-4.30
2017-12-10T02:57:48.979Z,-4.30
2017-12-10T02:58:50.602Z,-4.20
2017-12-10T02:59:51.916Z,-4.20
2017-12-10T03:00:53.246Z,-4.30
2017-12-10T03:01:54.564Z,-4.30
2017-12-10T03:02:55.872Z,-4.30
2017-12-10T03:03:57.494Z,-4.30
2017-12-10T03:04:58.807Z,-4.30
2017-12-10T03:06:00.865Z,-4.30
2017-12-10T03:07:02.981Z,-4.30
2017-12-10T03:08:04.301Z,-4.30
2017-12-10T03:09:05.907Z,-4.30
2017-12-10T03:10:07.240Z,-4.30
2017-12-10T03:11:08.609Z,-4.20
2017-12-10T03:12:10.669Z,-4.20
2017-12-10T03:13:12.734Z,-4.20
2017-12-10T03:14:15.053Z,-4.10
2017-12-10T03:15:16.404Z,-4.10
2017-12-10T03:16:17.702Z,-4.10
2017-12-10T03:17:19.029Z,-4.10
2017-12-10T03:18:20.357Z,-4.10
2017-12-10T03:19:21.722Z,-4.00
2017-12-10T03:20:23.784Z,-4.10
2017-12-10T03:21:25.846Z,-4.00
2017-12-10T03:22:27.914Z,-4.00
2017-12-10T03:23:29.228Z,-4.00
2017-12-10T03:24:31.576Z,-4.00
2017-12-10T03:25:32.892Z,-4.00
2017-12-10T03:26:34.227Z,-4.00
2017-12-10T03:27:35.559Z,-4.10
2017-12-10T03:28:36.886Z,-4.10
2017-12-10T03:29:39.278Z,-4.10
2017-12-10T03:30:40.599Z,-4.10
2017-12-10T03:31:42.658Z,-4.00
2017-12-10T03:32:44.716Z,-4.00
2017-12-10T03:33:46.786Z,-4.10
2017-12-10T03:34:48.794Z,-4.10
2017-12-10T03:35:50.116Z,-4.00
2017-12-10T03:36:51.430Z,-4.00
2017-12-10T03:37:52.762Z,-4.10
2017-12-10T03:38:54.822Z,-4.10
2017-12-10T03:39:57.220Z,-4.10
2017-12-10T03:40:58.546Z,-4.10
2017-12-10T03:41:59.880Z,-4.10
2017-12-10T03:43:01.947Z,-4.20
2017-12-10T03:44:04.022Z,-4.20
2017-12-10T03:45:05.635Z,-4.20
2017-12-10T03:46:06.968Z,-4.20
2017-12-10T03:47:08.304Z,-4.30
2017-12-10T03:48:09.629Z,-4.30
2017-12-10T03:49:10.947Z,-4.30
2017-12-10T03:50:12.280Z,-4.30
2017-12-10T03:51:13.615Z,-4.30
2017-12-10T03:52:15.686Z,-4.30
2017-12-10T03:53:17.026Z,-4.30
2017-12-10T03:54:18.358Z,-4.30
2017-12-10T03:55:20.704Z,-4.30
2017-12-10T03:56:22.030Z,-4.30
2017-12-10T03:57:23.374Z,-4.30
2017-12-10T03:58:24.698Z,-4.40
2017-12-10T03:59:26.022Z,-4.40
2017-12-10T04:00:27.604Z,-4.40
2017-12-10T04:01:28.935Z,-4.40
2017-12-10T04:02:30.988Z,-4.50
2017-12-10T04:03:33.035Z,-4.50
2017-12-10T04:04:34.372Z,-4.60
2017-12-10T04:05:35.716Z,-4.50
2017-12-10T04:06:37.050Z,-4.50
2017-12-10T04:07:38.423Z,-4.50
2017-12-10T04:08:39.752Z,-4.60
2017-12-10T04:09:41.098Z,-4.60
2017-12-10T04:10:42.458Z,-4.60
2017-12-10T04:11:43.787Z,-4.60
2017-12-10T04:12:45.084Z,-4.60
2017-12-10T04:13:46.410Z,-4.60
2017-12-10T04:14:47.710Z,-4.70
2017-12-10T04:15:49.362Z,-4.70
2017-12-10T04:16:50.678Z,-4.70
2017-12-10T04:17:52.746Z,-4.80
2017-12-10T04:18:54.815Z,-4.80
2017-12-10T04:19:56.138Z,-4.90
2017-12-10T04:20:58.540Z,-4.90
2017-12-10T04:21:59.851Z,-4.90
2017-12-10T04:23:01.933Z,-4.90
2017-12-10T04:24:03.273Z,-5.00
2017-12-10T04:25:04.578Z,-4.90
2017-12-10T04:26:06.207Z,-4.90
2017-12-10T04:27:08.275Z,-4.90
2017-12-10T04:28:09.602Z,-4.90
2017-12-10T04:29:10.924Z,-4.90
2017-12-10T04:30:12.199Z,-4.90
2017-12-10T04:31:13.530Z,-5.00
2017-12-10T04:32:14.892Z,-5.00
2017-12-10T04:33:16.219Z,-5.00
2017-12-10T04:34:17.547Z,-5.00
2017-12-10T04:35:18.881Z,-5.00
2017-12-10T04:36:20.489Z,-5.00
2017-12-10T04:37:21.814Z,-5.00
2017-12-10T04:38:23.147Z,-5.00
2017-12-10T04:39:24.467Z,-5.00
2017-12-10T04:40:25.795Z,-5.00
2017-12-10T04:41:27.168Z,-4.90
2017-12-10T04:42:29.234Z,-4.90
2017-12-10T04:43:31.299Z,-4.80
2017-12-10T04:44:32.619Z,-4.90
2017-12-10T04:45:33.947Z,-4.80
2017-12-10T04:46:35.556Z,-4.80
2017-12-10T04:47:36.879Z,-4.70
2017-12-10T04:48:38.214Z,-4.70
2017-12-10T04:49:39.527Z,-4.70
2017-12-10T04:50:40.839Z,-4.70
2017-12-10T04:51:42.530Z,-4.70
2017-12-10T04:52:43.879Z,-4.80
2017-12-10T04:53:45.204Z,-4.80
2017-12-10T04:54:47.265Z,-5.00
2017-12-10T04:55:48.587Z,-5.00
2017-12-10T04:56:50.988Z,-5.00
2017-12-10T04:57:52.315Z,-5.00
2017-12-10T04:58:54.391Z,-5.00
2017-12-10T04:59:55.712Z,-5.00
2017-12-10T05:00:57.785Z,-4.90
2017-12-10T05:01:59.431Z,-4.90
2017-12-10T05:03:01.563Z,-4.90
2017-12-10T05:04:02.919Z,-4.90
2017-12-10T05:05:04.271Z,-4.80
2017-12-10T05:06:06.349Z,-4.90
2017-12-10T05:07:07.975Z,-4.90
2017-12-10T05:08:10.047Z,-4.90
2017-12-10T05:09:12.106Z,-4.90
2017-12-10T05:10:14.179Z,-4.90
2017-12-10T05:11:15.541Z,-4.90
2017-12-10T05:12:17.125Z,-4.90
2017-12-10T05:13:18.452Z,-4.90
2017-12-10T05:14:19.781Z,-4.90
2017-12-10T05:15:21.102Z,-5.00
2017-12-10T05:16:22.407Z,-5.00
2017-12-10T05:17:23.736Z,-5.10
2017-12-10T05:18:25.077Z,-5.10
2017-12-10T05:19:26.381Z,-5.00
2017-12-10T05:20:27.715Z,-5.00
2017-12-10T05:21:29.032Z,-5.00
2017-12-10T05:22:30.390Z,-4.90
2017-12-10T05:23:32.450Z,-4.90
2017-12-10T05:24:34.531Z,-4.90
2017-12-10T05:25:35.869Z,-4.90
2017-12-10T05:26:37.170Z,-4.90
2017-12-10T05:27:38.773Z,-4.90
2017-12-10T05:28:40.093Z,-4.90
2017-12-10T05:29:42.191Z,-4.90
2017-12-10T05:30:43.509Z,-4.90
2017-12-10T05:31:44.830Z,-4.80
2017-12-10T05:32:47.174Z,-4.80
2017-12-10T05:33:48.506Z,-4.80
2017-12-10T05:34:49.819Z,-4.80
2017-12-10T05:35:51.133Z,-4.70
2017-12-10T05:36:53.402Z,-4.70
2017-12-10T05:37:55.099Z,-4.70
2017-12-10T05:39:04.211Z,-4.60
2017-12-10T05:40:05.675Z,-4.60
2017-12-10T05:41:07.131Z,-4.60
2017-12-10T05:42:08.567Z,-4.60
2017-12-10T05:43:10.187Z,-4.60
2017-12-10T05:44:11.625Z,-4.50
2017-12-10T05:45:13.071Z,-4.50
2017-12-10T05:46:14.521Z,-4.50
2017-12-10T05:47:16.004Z,-4.50
2017-12-10T05:48:17.472Z,-4.50
2017-12-10T05:49:18.953Z,-4.60
2017-12-10T05:50:20.410Z,-4.60
2017-12-10T05:51:21.847Z,-4.60
2017-12-10T05:52:23.270Z,-4.60
2017-12-10T05:53:25.514Z,-4.70
2017-12-10T05:54:27.653Z,-4.70
2017-12-10T05:55:29.180Z,-4.70
2017-12-10T05:56:30.715Z,-4.70
2017-12-10T05:57:32.110Z,-4.70
2017-12-10T05:58:33.531Z,-4.60
2017-12-10T05:59:34.874Z,-4.70
2017-12-10T06:00:36.283Z,-4.70
2017-12-10T06:01:38.575Z,-4.70
2017-12-10T06:02:39.978Z,-4.70
2017-12-10T06:03:42.399Z,-4.70
2017-12-10T06:04:43.840Z,-4.70
2017-12-10T06:05:45.474Z,-4.70
2017-12-10T06:06:46.913Z,-4.80
2017-12-10T06:07:48.319Z,-4.80
2017-12-10T06:08:49.811Z,-4.80
2017-12-10T06:09:51.143Z,-4.80
2017-12-10T06:10:53.210Z,-4.80
2017-12-10T06:11:54.663Z,-4.80
2017-12-10T06:12:56.147Z,-4.80
2017-12-10T06:13:58.636Z,-4.70
2017-12-10T06:15:00.941Z,-4.70
2017-12-10T06:16:02.555Z,-4.70
2017-12-10T06:17:04.691Z,-4.70
2017-12-10T06:18:06.276Z,-4.70
2017-12-10T06:19:08.891Z,-4.60
2017-12-10T06:20:10.334Z,-4.70
2017-12-10T06:21:11.767Z,-4.60
2017-12-10T06:22:13.155Z,-4.60
2017-12-10T06:23:14.552Z,-4.50
2017-12-10T06:24:16.238Z,-4.50
2017-12-10T06:25:17.707Z,-4.60
2017-12-10T06:26:20.093Z,-4.60
2017-12-10T06:27:22.171Z,-4.60
2017-12-10T06:28:24.379Z,-4.60
2017-12-10T06:29:25.837Z,-4.60
2017-12-10T06:30:27.519Z,-4.60
2017-12-10T06:31:28.930Z,-4.60
2017-12-10T06:32:30.353Z,-4.60
2017-12-10T06:33:31.778Z,-4.50
2017-12-10T06:34:33.275Z,-4.50
2017-12-10T06:35:34.766Z,-4.50
2017-12-10T06:36:36.338Z,-4.50
2017-12-10T06:37:37.870Z,-4.50
2017-12-10T06:38:39.194Z,-4.50
2017-12-10T06:39:41.296Z,-4.40
2017-12-10T06:40:42.646Z,-4.40
2017-12-10T06:41:44.002Z,-4.40
2017-12-10T06:42:45.349Z,-4.40
2017-12-10T06:43:46.730Z,-4.50
2017-12-10T06:44:49.051Z,-4.40
2017-12-10T06:45:50.397Z,-4.40
2017-12-10T06:46:51.757Z,-4.40
2017-12-10T06:47:53.119Z,-4.40
2017-12-10T06:48:55.187Z,-4.40
2017-12-10T06:49:56.535Z,-4.40
2017-12-10T06:50:58.592Z,-4.30
2017-12-10T06:52:00.692Z,-4.30
2017-12-10T06:53:02.056Z,-4.30
2017-12-10T06:54:03.398Z,-4.30
2017-12-10T06:55:05.031Z,-4.30
2017-12-10T06:56:06.373Z,-4.40
2017-12-10T06:57:07.740Z,-4.40
2017-12-10T06:58:09.116Z,-4.40
2017-12-10T06:59:11.175Z,-4.50
2017-12-10T07:00:13.519Z,-4.50
2017-12-10T07:01:14.855Z,-4.50
2017-12-10T07:02:16.177Z,-4.60
2017-12-10T07:03:17.512Z,-4.60
2017-12-10T07:04:18.845Z,-4.70
2017-12-10T07:05:20.206Z,-4.80
2017-12-10T07:06:21.538Z,-4.80
2017-12-10T07:07:22.911Z,-4.80
2017-12-10T07:08:24.217Z,-4.80
2017-12-10T07:09:25.609Z,-4.80
2017-12-10T07:10:27.221Z,-4.80
2017-12-10T07:11:28.550Z,-4.80
2017-12-10T07:12:29.875Z,-4.80
2017-12-10T07:13:33.651Z,-4.80
2017-12-10T07:14:34.979Z,-4.80
2017-12-10T07:15:36.333Z,-4.80
2017-12-10T07:16:37.643Z,-4.80
2017-12-10T07:17:38.978Z,-4.70
2017-12-10T07:18:40.317Z,-4.70
2017-12-10T07:19:41.625Z,-4.70
2017-12-10T07:20:42.979Z,-4.70
2017-12-10T07:21:45.063Z,-4.70
2017-12-10T07:22:46.401Z,-4.70
2017-12-10T07:23:47.715Z,-4.70
2017-12-10T07:24:49.038Z,-4.70
2017-12-10T07:25:50.381Z,-4.70
2017-12-10T07:26:51.693Z,-4.70
2017-12-10T07:27:53.019Z,-4.70
2017-12-10T07:28:54.352Z,-4.70
2017-12-10T07:29:56.430Z,-4.80
2017-12-10T07:30:58.803Z,-4.80
2017-12-10T07:32:00.145Z,-4.80
2017-12-10T07:33:01.472Z,-4.80
2017-12-10T07:34:04.071Z,-4.80
2017-12-10T07:35:05.395Z,-4.80
2017-12-10T07:36:06.733Z,-4.80
2017-12-10T07:37:08.053Z,-4.80
2017-12-10T07:38:09.429Z,-4.70
2017-12-10T07:39:10.751Z,-4.70
2017-12-10T07:40:12.814Z,-4.60
2017-12-10T07:41:14.891Z,-4.60
2017-12-10T07:42:16.218Z,-4.60
2017-12-10T07:43:18.286Z,-4.60
2017-12-10T07:44:20.349Z,-4.60
2017-12-10T07:45:21.685Z,-4.60
2017-12-10T07:46:23.808Z,-4.30
2017-12-10T07:47:25.150Z,-4.30
2017-12-10T07:48:26.466Z,-4.10
2017-12-10T07:49:27.800Z,-3.90
2017-12-10T07:50:29.144Z,-3.70
2017-12-10T07:51:30.744Z,-3.50
2017-12-10T07:52:32.081Z,-3.10
2017-12-10T07:53:33.410Z,-2.80
2017-12-10T07:54:35.494Z,-2.00
2017-12-10T07:55:36.826Z,-2.00
2017-12-10T07:56:38.199Z,-1.60
2017-12-10T07:57:40.260Z,-1.00
2017-12-10T07:58:42.345Z,-0.90
2017-12-10T07:59:43.676Z,-0.90
2017-12-10T08:00:45.087Z,-0.60
2017-12-10T08:01:46.507Z,-0.30
2017-12-10T08:02:47.845Z,-0.10
2017-12-10T08:03:49.168Z,0.00
2017-12-10T08:04:50.508Z,0.20
2017-12-10T08:05:51.820Z,0.30
2017-12-10T08:06:54.144Z,0.50
2017-12-10T08:07:55.467Z,0.50
2017-12-10T08:08:57.109Z,0.60
2017-12-10T08:09:58.481Z,0.80
2017-12-10T08:10:59.800Z,0.90
2017-12-10T08:12:01.481Z,1.10
2017-12-10T08:13:02.799Z,1.20
2017-12-10T08:14:04.126Z,1.30
2017-12-10T08:15:05.448Z,1.50
2017-12-10T08:16:06.801Z,1.50
2017-12-10T08:17:09.046Z,1.50
2017-12-10T08:18:10.392Z,1.50
2017-12-10T08:19:11.769Z,1.50
2017-12-10T08:20:13.108Z,1.40
2017-12-10T08:21:14.446Z,1.30
2017-12-10T08:22:16.659Z,0.80
2017-12-10T08:23:18.000Z,0.80
2017-12-10T08:24:19.322Z,0.80
2017-12-10T08:25:20.648Z,0.80
2017-12-10T08:26:21.976Z,0.80
2017-12-10T08:27:24.064Z,0.70
2017-12-10T08:28:25.388Z,0.70
2017-12-10T08:29:26.723Z,0.60
2017-12-10T08:30:28.797Z,0.80
2017-12-10T08:31:30.105Z,0.80
2017-12-10T08:32:31.895Z,0.90
2017-12-10T08:33:33.226Z,0.90
2017-12-10T08:34:35.306Z,1.10
2017-12-10T08:35:36.642Z,1.10
2017-12-10T08:36:37.966Z,1.30
2017-12-10T08:37:40.064Z,1.60
2017-12-10T08:38:41.404Z,1.60
2017-12-10T08:39:42.752Z,1.60
2017-12-10T08:40:44.086Z,1.80
2017-12-10T08:41:45.404Z,1.90
2017-12-10T08:42:47.505Z,2.10
2017-12-10T08:43:48.829Z,2.10
2017-12-10T08:44:50.164Z,2.00
2017-12-10T08:45:51.485Z,1.90
2017-12-10T08:46:53.560Z,2.00
2017-12-10T08:47:55.178Z,2.00
2017-12-10T08:48:56.498Z,2.00
2017-12-10T08:49:57.840Z,2.10
2017-12-10T08:50:59.181Z,2.20
2017-12-10T08:52:00.487Z,2.20
2017-12-10T08:53:02.086Z,2.30
2017-12-10T08:54:03.412Z,2.20
2017-12-10T08:55:04.723Z,2.10
2017-12-10T08:56:06.066Z,2.10
2017-12-10T08:57:07.412Z,2.10
2017-12-10T08:58:08.760Z,2.30
2017-12-10T08:59:10.091Z,2.50
2017-12-10T09:00:11.415Z,2.60
2017-12-10T09:01:13.487Z,3.10
2017-12-10T09:02:15.568Z,3.30
2017-12-10T09:03:17.237Z,3.20
2017-12-10T09:04:18.546Z,3.50
2017-12-10T09:05:20.627Z,3.70
2017-12-10T09:06:21.944Z,3.60
2017-12-10T09:07:24.028Z,4.00
2017-12-10T09:08:25.408Z,4.00
2017-12-10T09:09:26.741Z,4.00
2017-12-10T09:10:28.291Z,4.00
2017-12-10T09:11:29.626Z,4.20
2017-12-10T09:12:30.952Z,4.40
2017-12-10T09:13:32.299Z,4.50
2017-12-10T09:14:33.622Z,4.50
2017-12-10T09:15:35.690Z,4.20
2017-12-10T09:16:37.010Z,4.10
2017-12-10T09:17:39.077Z,3.90
2017-12-10T09:18:41.415Z,3.90
2017-12-10T09:19:42.769Z,3.90
2017-12-10T09:20:44.093Z,3.80
2017-12-10T09:21:45.427Z,3.70
2017-12-10T09:22:46.747Z,3.40
2017-12-10T09:23:48.171Z,3.40
2017-12-10T09:24:49.537Z,3.20
2017-12-10T09:25:50.853Z,3.10
2017-12-10T09:26:52.915Z,3.10
2017-12-10T09:27:54.976Z,3.00
2017-12-10T09:28:57.068Z,3.00
2017-12-10T09:29:58.398Z,2.90
2017-12-10T09:30:59.726Z,2.90
2017-12-10T09:32:01.066Z,2.90
2017-12-10T09:33:03.123Z,2.70
2017-12-10T09:34:05.304Z,2.30
2017-12-10T09:35:06.627Z,2.20
2017-12-10T09:36:08.692Z,1.90
2017-12-10T09:37:10.768Z,1.70
2017-12-10T09:38:12.102Z,1.60
2017-12-10T09:39:14.188Z,1.40
2017-12-10T09:40:15.535Z,1.40
2017-12-10T09:41:16.860Z,1.10
2017-12-10T09:42:18.203Z,0.90
2017-12-10T09:43:19.526Z,0.90
2017-12-10T09:44:21.640Z,0.80
2017-12-10T09:45:22.979Z,0.80
2017-12-10T09:46:24.315Z,0.80
2017-12-10T09:47:25.635Z,0.60
2017-12-10T09:48:26.978Z,0.60
2017-12-10T09:49:28.326Z,0.60
2017-12-10T09:50:29.648Z,0.60
2017-12-10T09:51:31.726Z,0.60
2017-12-10T09:52:33.051Z,0.60
2017-12-10T09:53:35.132Z,0.70
2017-12-10T09:54:36.695Z,0.70
2017-12-10T09:55:38.009Z,0.80
2017-12-10T09:56:40.067Z,0.70
2017-12-10T09:57:42.134Z,0.70
2017-12-10T09:58:44.207Z,0.60
2017-12-10T09:59:45.819Z,0.60
2017-12-10T10:00:47.196Z,0.50
2017-12-10T10:01:48.533Z,0.30
2017-12-10T10:02:50.595Z,0.20
2017-12-10T10:03:51.921Z,0.10
2017-12-10T10:04:54.347Z,0.00
2017-12-10T10:05:55.689Z,0.00
2017-12-10T10:06:57.030Z,0.10
2017-12-10T10:07:58.368Z,0.00
2017-12-10T10:08:59.712Z,0.00
2017-12-10T10:10:01.053Z,-0.20
2017-12-10T10:11:02.407Z,-0.40
2017-12-10T10:12:03.716Z,-0.40
2017-12-10T10:13:05.048Z,-0.40
2017-12-10T10:14:07.111Z,-0.70
2017-12-10T10:15:09.543Z,-0.80
2017-12-10T10:16:10.854Z,-0.80
2017-12-10T10:17:12.178Z,-1.00
2017-12-10T10:18:13.512Z,-1.10
2017-12-10T10:19:14.829Z,-1.10
2017-12-10T10:20:16.229Z,-1.10
2017-12-10T10:21:17.551Z,-1.20
2017-12-10T10:22:18.879Z,-1.20
2017-12-10T10:23:20.931Z,-1.30
2017-12-10T10:24:23.089Z,-1.20
2017-12-10T10:25:24.625Z,-1.20
2017-12-10T10:26:25.954Z,-1.20
2017-12-10T10:27:27.283Z,-1.20
2017-12-10T10:28:28.601Z,-1.10
2017-12-10T10:29:30.667Z,-0.80
2017-12-10T10:30:32.255Z,-0.90
2017-12-10T10:31:33.581Z,-0.70
2017-12-10T10:32:34.930Z,-0.70
2017-12-10T10:33:36.269Z,-0.70
2017-12-10T10:34:37.611Z,-0.60
2017-12-10T10:35:39.985Z,-0.50
2017-12-10T10:36:41.315Z,-0.50
2017-12-10T10:37:42.646Z,-0.40
2017-12-10T10:38:43.969Z,-0.20
2017-12-10T10:39:46.031Z,0.00
2017-12-10T10:40:47.648Z,0.00
2017-12-10T10:41:50.468Z,0.00
2017-12-10T10:42:51.788Z,0.00
2017-12-10T10:43:53.852Z,-0.30
2017-12-10T10:44:55.928Z,-0.40
2017-12-10T10:45:57.265Z,-0.40
2017-12-10T10:46:58.606Z,-0.50
2017-12-10T10:48:00.672Z,-0.50
2017-12-10T10:49:01.983Z,-0.60
2017-12-10T10:50:03.307Z,-0.60
2017-12-10T10:51:04.654Z,-0.60
2017-12-10T10:52:05.987Z,-0.60
2017-12-10T10:53:07.307Z,-0.60
2017-12-10T10:54:08.641Z,-0.70
2017-12-10T10:55:09.957Z,-0.70
2017-12-10T10:56:12.283Z,-0.60
2017-12-10T10:57:13.617Z,-0.60
2017-12-10T10:58:14.941Z,-0.70
2017-12-10T10:59:16.283Z,-0.60
2017-12-10T11:00:17.629Z,-0.60
2017-12-10T11:01:18.990Z,-0.50
2017-12-10T11:02:20.317Z,-0.50
2017-12-10T11:03:21.668Z,-0.40
2017-12-10T11:04:23.005Z,-0.40
2017-12-10T11:05:24.311Z,-0.30
2017-12-10T11:06:26.662Z,-0.30
2017-12-10T11:07:27.978Z,-0.40
2017-12-10T11:08:29.320Z,-0.30
2017-12-10T11:09:30.661Z,-0.30
2017-12-10T11:10:31.997Z,-0.30
2017-12-10T11:11:33.543Z,-0.30
2017-12-10T11:12:34.883Z,-0.40
2017-12-10T11:13:36.226Z,-0.50
2017-12-10T11:14:37.609Z,-0.50
2017-12-10T11:15:38.927Z,-0.50
2017-12-10T11:16:40.328Z,-0.50
2017-12-10T11:17:42.399Z,-0.60
2017-12-10T11:18:43.731Z,-0.60
2017-12-10T11:19:45.813Z,-0.50
2017-12-10T11:20:47.153Z,-0.50
2017-12-10T11:21:48.551Z,-0.40
2017-12-10T11:22:49.878Z,-0.50
2017-12-10T11:23:51.211Z,-0.40
2017-12-10T11:24:52.611Z,-0.40
2017-12-10T11:25:54.730Z,-0.50
2017-12-10T11:26:56.075Z,-0.50
2017-12-10T11:27:57.419Z,-0.60
2017-12-10T11:28:58.759Z,-0.60
2017-12-10T11:30:00.093Z,-0.60
2017-12-10T11:31:01.410Z,-0.60
2017-12-10T11:32:03.031Z,-0.60
2017-12-10T11:33:05.106Z,-0.40
2017-12-10T11:34:07.177Z,-0.30
2017-12-10T11:35:08.525Z,-0.40
2017-12-10T11:36:09.851Z,-0.30
2017-12-10T11:37:11.947Z,-0.20
2017-12-10T11:38:13.273Z,-0.20
2017-12-10T11:39:14.599Z,-0.30
2017-12-10T11:40:16.671Z,-0.20
2017-12-10T11:41:17.987Z,-0.20
2017-12-10T11:42:19.588Z,-0.20
2017-12-10T11:43:20.927Z,-0.10
2017-12-10T11:44:22.321Z,0.00
2017-12-10T11:45:23.656Z,0.00
2017-12-10T11:46:24.993Z,0.00
2017-12-10T11:47:26.368Z,0.10
2017-12-10T11:48:28.443Z,0.30
2017-12-10T11:49:29.771Z,0.30
2017-12-10T11:50:31.881Z,0.50
2017-12-10T11:51:33.205Z,0.50
2017-12-10T11:52:34.798Z,0.60
2017-12-10T11:53:36.131Z,0.70
2017-12-10T11:54:37.459Z,0.70
2017-12-10T11:55:38.762Z,0.80
2017-12-10T11:56:40.823Z,0.80
2017-12-10T11:57:43.187Z,0.80
2017-12-10T11:58:45.263Z,0.80
2017-12-10T11:59:46.595Z,0.80
2017-12-10T12:00:48.673Z,0.90
2017-12-10T12:01:49.995Z,0.90
2017-12-10T12:02:52.125Z,1.00
2017-12-10T12:03:53.450Z,1.00
2017-12-10T12:04:54.791Z,1.10
2017-12-10T12:05:56.104Z,1.10
2017-12-10T12:06:57.453Z,1.20
2017-12-10T12:07:59.053Z,1.30
2017-12-10T12:09:00.387Z,1.30
2017-12-10T12:10:01.735Z,1.40
2017-12-10T12:11:03.063Z,1.50
2017-12-10T12:12:04.375Z,1.50
2017-12-10T12:13:05.771Z,1.60
2017-12-10T12:14:07.095Z,1.70
2017-12-10T12:15:08.441Z,1.70
2017-12-10T12:16:09.789Z,1.70
2017-12-10T12:17:11.128Z,1.70
2017-12-10T12:18:12.459Z,1.80
2017-12-10T12:19:13.811Z,1.80
2017-12-10T12:20:15.143Z,1.90
2017-12-10T12:21:16.473Z,1.90
2017-12-10T12:22:17.787Z,1.90
2017-12-10T12:23:19.885Z,2.00
2017-12-10T12:24:21.209Z,2.00
2017-12-10T12:25:22.623Z,2.10
2017-12-10T12:26:24.691Z,2.10
2017-12-10T12:27:26.747Z,2.10
2017-12-10T12:28:28.826Z,2.00
2017-12-10T12:29:30.167Z,2.00
2017-12-10T12:30:32.218Z,2.10
2017-12-10T12:31:34.299Z,2.10
2017-12-10T12:32:35.621Z,2.10
2017-12-10T12:33:38.028Z,2.10
2017-12-10T12:34:39.359Z,2.10
2017-12-10T12:35:40.708Z,2.10
2017-12-10T12:36:42.075Z,2.20
2017-12-10T12:37:43.403Z,2.10
2017-12-10T12:38:44.763Z,2.20
2017-12-10T12:39:46.090Z,2.20
2017-12-10T12:40:47.422Z,2.20
2017-12-10T12:41:48.747Z,2.20
2017-12-10T12:42:50.075Z,2.30
2017-12-10T12:43:52.165Z,2.20
2017-12-10T12:44:53.515Z,2.20
2017-12-10T12:45:54.839Z,2.20
2017-12-10T12:46:56.187Z,2.20
2017-12-10T12:47:57.527Z,2.20
2017-12-10T12:48:58.879Z,2.20
2017-12-10T12:50:00.199Z,2.10
2017-12-10T12:51:02.271Z,2.10
2017-12-10T12:52:03.607Z,2.00
2017-12-10T12:53:05.671Z,2.00
2017-12-10T12:54:07.012Z,2.00
2017-12-10T12:55:09.106Z,2.00
2017-12-10T12:56:10.415Z,2.00
2017-12-10T12:57:12.468Z,2.10
2017-12-10T12:58:14.535Z,2.10
2017-12-10T12:59:16.675Z,2.10
2017-12-10T13:00:18.015Z,2.10
2017-12-10T13:01:19.361Z,2.10
2017-12-10T13:02:20.695Z,2.10
2017-12-10T13:03:22.017Z,2.20
2017-12-10T13:04:23.624Z,2.20
2017-12-10T13:05:25.693Z,2.20
2017-12-10T13:06:27.027Z,2.20
2017-12-10T13:07:29.095Z,2.30
2017-12-10T13:08:30.437Z,2.30
2017-12-10T13:09:32.567Z,2.30
2017-12-10T13:10:33.903Z,2.30
2017-12-10T13:11:35.222Z,2.30
2017-12-10T13:12:36.561Z,2.30
2017-12-10T13:13:37.898Z,2.30
2017-12-10T13:14:39.523Z,2.40
2017-12-10T13:15:41.609Z,2.40
2017-12-10T13:16:42.932Z,2.40
2017-12-10T13:17:44.243Z,2.40
2017-12-10T13:18:45.579Z,2.40
2017-12-10T13:19:47.031Z,2.40